Time;durP1;ratioP1;P1;durP2;ratioP2;P2;SDS_P1;SDS_P2;PMS_P1;PMS_P2;Temp;Humidity;BMP_temperature;BMP_pressure;BME280_temperature;BME280_humidity;BME280_pressure;Samples;Min_cycle;Max_cycle;Signal;HPM_P1;HPM_P2
2022/03/20 00:01:38;;;;;;;5.25;1.58;;;7.30;62.80;;;;;;5034164;28;20071;-66
2022/03/20 00:04:04;;;;;;;3.17;1.05;;;7.30;62.90;;;;;;5033881;28;20085;-66
2022/03/20 00:06:29;;;;;;;6.82;2.28;;;7.20;63.00;;;;;;5033967;28;20136;-66
2022/03/20 00:08:55;;;;;;;6.40;2.30;;;7.20;63.50;;;;;;5034030;28;20083;-65
2022/03/20 00:11:21;;;;;;;6.00;1.85;;;7.20;63.50;;;;;;5033937;28;20052;-65
2022/03/20 00:13:46;;;;;;;4.60;1.92;;;7.10;63.40;;;;;;5033840;28;20029;-66
2022/03/20 00:16:13;;;;;;;5.25;2.38;;;7.10;63.50;;;;;;5033790;28;20384;-66
2022/03/20 00:18:39;;;;;;;5.30;2.58;;;7.10;63.50;;;;;;5033766;28;20523;-66
2022/03/20 00:21:04;;;;;;;6.13;3.00;;;7.10;63.90;;;;;;5033724;28;20029;-66
2022/03/20 00:23:30;;;;;;;5.65;2.40;;;7.10;64.00;;;;;;5033700;28;20021;-65
2022/03/20 00:25:56;;;;;;;15.38;4.10;;;7.00;63.80;;;;;;5016026;28;20026;-66
2022/03/20 00:28:23;;;;;;;6.57;3.38;;;7.00;64.20;;;;;;5033499;28;20025;-66
2022/03/20 00:30:50;;;;;;;5.50;3.50;;;7.00;64.30;;;;;;5033621;28;20526;-66
2022/03/20 00:33:15;;;;;;;4.22;2.85;;;6.90;64.70;;;;;;5033377;28;20059;-66
2022/03/20 00:35:41;;;;;;;9.02;4.38;;;6.80;65.00;;;;;;5033378;28;20033;-65
2022/03/20 00:38:08;;;;;;;7.07;3.60;;;6.80;65.10;;;;;;5033445;28;20029;-66
2022/03/20 00:40:34;;;;;;;11.43;5.03;;;6.80;65.00;;;;;;5015824;28;20521;-66
2022/03/20 00:43:00;;;;;;;9.73;4.80;;;6.80;65.40;;;;;;5033273;28;20097;-65
2022/03/20 00:45:28;;;;;;;9.02;4.65;;;6.70;65.60;;;;;;5033369;28;20100;-66
2022/03/20 00:47:54;;;;;;;10.52;5.13;;;6.70;65.50;;;;;;5032378;28;20025;-66
2022/03/20 00:50:20;;;;;;;8.35;5.32;;;6.70;65.40;;;;;;5033060;28;20026;-65
2022/03/20 00:52:46;;;;;;;8.55;4.85;;;6.60;65.50;;;;;;5033473;28;20047;-66
2022/03/20 00:55:11;;;;;;;9.48;5.65;;;6.60;65.60;;;;;;5032960;28;20075;-65
2022/03/20 00:57:36;;;;;;;9.10;4.85;;;6.60;65.70;;;;;;5032937;28;20417;-66
2022/03/20 01:00:03;;;;;;;8.77;4.53;;;6.50;65.50;;;;;;5032939;28;20477;-66
2022/03/20 01:02:29;;;;;;;10.63;5.03;;;6.50;65.40;;;;;;5032837;28;20020;-66
2022/03/20 01:04:54;;;;;;;8.23;4.57;;;6.50;65.60;;;;;;5032752;28;20029;-66
2022/03/20 01:07:20;;;;;;;8.45;4.80;;;6.50;65.70;;;;;;5032827;28;20033;-66
2022/03/20 01:09:45;;;;;;;9.15;4.03;;;6.50;65.70;;;;;;5032973;28;20384;-66
2022/03/20 01:12:11;;;;;;;8.35;4.45;;;6.40;65.80;;;;;;5018511;28;20030;-66
2022/03/20 01:14:37;;;;;;;8.77;4.47;;;6.40;66.10;;;;;;5013208;28;20112;-65
2022/03/20 01:17:04;;;;;;;7.28;4.20;;;6.40;66.40;;;;;;5012979;28;20056;-66
2022/03/20 01:19:31;;;;;;;10.55;5.80;;;6.40;66.60;;;;;;5013173;28;20030;-66
2022/03/20 01:21:58;;;;;;;8.95;5.28;;;6.30;66.90;;;;;;5012891;28;20014;-66
2022/03/20 01:24:24;;;;;;;8.98;4.95;;;6.20;66.90;;;;;;5012776;28;20026;-66
2022/03/20 01:26:50;;;;;;;8.85;6.05;;;6.20;67.20;;;;;;5012965;28;20029;-66
2022/03/20 01:29:15;;;;;;;9.23;6.65;;;6.20;67.30;;;;;;4995157;28;20037;-65
2022/03/20 01:31:41;;;;;;;11.63;6.35;;;6.20;67.40;;;;;;4995023;28;20069;-65
2022/03/20 01:34:06;;;;;;;9.70;6.65;;;6.20;67.40;;;;;;5012530;28;20029;-65
2022/03/20 01:36:32;;;;;;;11.57;7.07;;;6.10;67.90;;;;;;5012709;28;20026;-66
2022/03/20 01:38:58;;;;;;;13.65;7.93;;;6.10;68.10;;;;;;5012630;28;20026;-66
2022/03/20 01:41:24;;;;;;;11.27;7.50;;;6.10;68.40;;;;;;5012526;28;20032;-66
2022/03/20 01:43:51;;;;;;;14.50;8.50;;;6.00;68.30;;;;;;5012614;28;20097;-66
2022/03/20 01:46:17;;;;;;;17.02;9.20;;;6.00;68.40;;;;;;4994716;28;20488;-66
2022/03/20 01:48:43;;;;;;;13.75;9.30;;;6.00;68.50;;;;;;4994860;28;20057;-66
2022/03/20 01:51:10;;;;;;;14.70;9.68;;;6.00;68.60;;;;;;5012501;28;20064;-66
2022/03/20 01:53:36;;;;;;;13.23;9.00;;;6.00;68.60;;;;;;5012360;28;20369;-65
2022/03/20 01:56:02;;;;;;;14.93;9.32;;;6.00;68.50;;;;;;5012027;28;20135;-65
2022/03/20 01:58:27;;;;;;;13.88;10.00;;;5.90;68.50;;;;;;5012242;28;20458;-65
2022/03/20 02:00:53;;;;;;;14.57;9.75;;;5.90;68.50;;;;;;4994571;28;20095;-65
2022/03/20 02:03:19;;;;;;;15.82;10.57;;;5.90;68.60;;;;;;5014120;28;20041;-66
2022/03/20 02:05:44;;;;;;;18.52;10.95;;;5.90;68.50;;;;;;5032025;28;20028;-65
2022/03/20 02:08:13;;;;;;;16.13;11.30;;;5.80;68.40;;;;;;5032068;28;20026;-65
2022/03/20 02:10:40;;;;;;;18.90;12.48;;;5.80;68.40;;;;;;5031975;28;20099;-66
2022/03/20 02:13:06;;;;;;;17.77;11.07;;;5.80;68.40;;;;;;5031877;28;20029;-65
2022/03/20 02:15:32;;;;;;;21.55;12.88;;;5.80;68.50;;;;;;5014024;28;20030;-66
2022/03/20 02:17:59;;;;;;;17.90;10.60;;;5.70;68.60;;;;;;5031865;28;20104;-65
2022/03/20 02:20:24;;;;;;;19.40;11.88;;;5.70;68.60;;;;;;5031820;28;20493;-66
2022/03/20 02:22:50;;;;;;;17.48;11.45;;;5.70;68.90;;;;;;5031910;28;20049;-65
2022/03/20 02:25:17;;;;;;;15.95;10.95;;;5.60;69.20;;;;;;5013986;28;20026;-65
2022/03/20 02:27:44;;;;;;;17.35;11.60;;;5.50;69.40;;;;;;5029139;28;20133;-66
2022/03/20 02:30:14;;;;;;;19.30;12.52;;;5.50;69.90;;;;;;5029013;28;20075;-66
2022/03/20 02:32:42;;;;;;;18.00;11.05;;;5.50;70.40;;;;;;5029034;28;20040;-66
2022/03/20 02:35:13;;;;;;;16.50;10.38;;;5.50;70.60;;;;;;5011049;28;20038;-66
2022/03/20 02:37:41;;;;;;;15.23;10.02;;;5.50;70.80;;;;;;5031594;28;20030;-66
2022/03/20 02:40:07;;;;;;;15.48;10.48;;;5.40;70.80;;;;;;5031416;28;20022;-66
2022/03/20 02:42:32;;;;;;;16.77;9.82;;;5.50;71.10;;;;;;5031483;28;20018;-66
2022/03/20 02:45:14;;;;;;;14.70;9.88;;;5.50;71.60;;;;;;5013826;28;20034;-66
2022/03/20 02:47:47;;;;;;;12.95;9.93;;;5.40;71.80;;;;;;5031620;28;20034;-67
2022/03/20 02:50:19;;;;;;;17.23;10.13;;;5.40;72.10;;;;;;5013846;28;20025;-66
2022/03/20 02:52:54;;;;;;;12.95;8.75;;;5.40;73.40;;;;;;5031589;28;20129;-66
2022/03/20 02:55:21;;;;;;;14.18;9.02;;;5.40;72.90;;;;;;5031156;28;20029;-66
2022/03/20 02:57:48;;;;;;;13.98;9.63;;;5.30;73.10;;;;;;5031567;28;20031;-66
2022/03/20 03:00:21;;;;;;;15.50;9.48;;;5.30;73.30;;;;;;5031309;28;20025;-65
2022/03/20 03:02:47;;;;;;;12.63;7.90;;;5.30;73.50;;;;;;5031664;28;20108;-66
2022/03/20 03:05:14;;;;;;;14.63;10.13;;;5.30;73.60;;;;;;5031312;28;20075;-65
2022/03/20 03:13:11;;;;;;;11.98;8.88;;;5.20;74.30;;;;;;5035319;28;20385;-66
2022/03/20 03:15:36;;;;;;;14.15;8.75;;;5.20;74.70;;;;;;5034798;28;20029;-66
2022/03/20 03:18:03;;;;;;;13.60;8.75;;;5.10;74.90;;;;;;5017040;28;20017;-66
2022/03/20 03:20:28;;;;;;;13.38;8.75;;;5.10;75.00;;;;;;5034905;28;20096;-65
2022/03/20 03:22:54;;;;;;;15.00;8.13;;;5.10;75.30;;;;;;5035035;28;20112;-66
2022/03/20 03:25:21;;;;;;;12.07;8.32;;;5.10;75.40;;;;;;5034781;28;20037;-66
2022/03/20 03:27:47;;;;;;;15.25;9.55;;;5.10;75.60;;;;;;5034773;28;20523;-65
2022/03/20 03:30:13;;;;;;;17.27;8.35;;;5.00;75.70;;;;;;5034737;28;20033;-66
2022/03/20 03:32:42;;;;;;;15.07;8.40;;;5.00;75.80;;;;;;5034516;28;20481;-66
2022/03/20 03:37:53;;;;;;;12.30;7.93;;;5.00;76.20;;;;;;5034691;28;20041;-65
2022/03/20 03:40:19;;;;;;;12.20;8.30;;;5.00;76.30;;;;;;5034527;28;20449;-66
2022/03/20 03:42:44;;;;;;;13.35;8.30;;;5.00;76.60;;;;;;5034378;28;20434;-66
2022/03/20 03:45:10;;;;;;;15.60;8.75;;;4.90;76.70;;;;;;5034312;28;20060;-65
2022/03/20 03:47:36;;;;;;;13.73;8.77;;;5.00;76.90;;;;;;5034318;28;20029;-65
2022/03/20 03:50:02;;;;;;;12.98;8.13;;;4.90;76.90;;;;;;5034327;28;20370;-65
2022/03/20 03:52:27;;;;;;;13.68;8.73;;;4.90;77.10;;;;;;5034300;28;20025;-65
2022/03/20 03:54:53;;;;;;;11.77;7.63;;;4.90;77.30;;;;;;5034190;28;20033;-66
2022/03/20 03:57:19;;;;;;;13.32;8.43;;;4.80;77.30;;;;;;5034115;28;20588;-65
2022/03/20 03:59:46;;;;;;;17.08;8.82;;;4.80;77.40;;;;;;5034124;28;20033;-65
2022/03/20 04:02:12;;;;;;;14.35;8.90;;;4.80;77.60;;;;;;5016522;28;20466;-65
2022/03/20 04:04:38;;;;;;;13.68;9.07;;;4.80;77.50;;;;;;5033947;28;20496;-66
2022/03/20 04:07:04;;;;;;;13.93;8.68;;;4.80;77.60;;;;;;5016274;28;20025;-65
2022/03/20 04:09:30;;;;;;;17.63;8.70;;;4.80;77.70;;;;;;5033913;28;20025;-65
2022/03/20 04:11:56;;;;;;;15.45;9.13;;;4.70;77.80;;;;;;5034034;28;20504;-65
2022/03/20 04:14:22;;;;;;;16.98;9.68;;;4.80;77.70;;;;;;5033579;28;20029;-66
2022/03/20 04:16:48;;;;;;;15.82;9.45;;;4.70;77.60;;;;;;5033659;28;20022;-65
2022/03/20 04:19:14;;;;;;;15.10;9.15;;;4.70;77.70;;;;;;5033888;28;20535;-65
2022/03/20 04:21:39;;;;;;;13.55;8.23;;;4.70;77.70;;;;;;5032532;28;20041;-65
2022/03/20 04:24:07;;;;;;;18.23;10.15;;;4.70;77.70;;;;;;5015986;28;20025;-65
2022/03/20 04:26:34;;;;;;;15.13;9.65;;;4.70;77.70;;;;;;5033567;28;20087;-66
2022/03/20 04:28:59;;;;;;;18.83;10.32;;;4.80;77.50;;;;;;5033625;28;20173;-66
2022/03/20 04:31:25;;;;;;;16.15;10.93;;;4.70;77.50;;;;;;5033551;28;20396;-66
2022/03/20 04:33:56;;;;;;;17.83;9.52;;;4.70;77.50;;;;;;5033616;28;20504;-66
2022/03/20 04:36:23;;;;;;;16.42;10.75;;;4.80;77.50;;;;;;5033388;28;20136;-66
2022/03/20 04:38:51;;;;;;;15.43;10.57;;;4.80;77.50;;;;;;5033479;28;20487;-66
2022/03/20 04:41:17;;;;;;;17.63;11.50;;;4.80;77.30;;;;;;5033243;28;20029;-66
2022/03/20 04:43:47;;;;;;;15.60;10.95;;;4.80;77.20;;;;;;5033224;28;20524;-65
2022/03/20 04:46:13;;;;;;;17.27;11.75;;;4.80;77.10;;;;;;5033383;28;20473;-65
2022/03/20 04:59:35;;;;;;;15.18;10.75;;;4.90;77.00;;;;;;5033314;28;20036;-66
2022/03/20 05:02:00;;;;;;;17.15;11.15;;;4.90;76.70;;;;;;5015082;28;20112;-65
2022/03/20 05:04:26;;;;;;;19.45;12.13;;;4.90;76.50;;;;;;5032872;28;20029;-66
2022/03/20 05:06:51;;;;;;;21.00;12.10;;;5.00;76.50;;;;;;5032918;28;20025;-65
2022/03/20 05:14:45;;;;;;;20.08;12.38;;;5.00;76.10;;;;;;5032612;28;20076;-65
2022/03/20 05:17:10;;;;;;;17.77;11.32;;;5.10;75.90;;;;;;5032608;28;20053;-65
2022/03/20 05:19:38;;;;;;;18.55;12.25;;;5.10;75.70;;;;;;5031340;28;20065;-66
2022/03/20 05:22:06;;;;;;;20.27;12.98;;;5.10;75.80;;;;;;5032678;28;20021;-66
2022/03/20 05:24:35;;;;;;;19.10;11.40;;;5.10;75.80;;;;;;5032560;28;20029;-65
2022/03/20 05:27:01;;;;;;;20.02;13.27;;;5.10;75.60;;;;;;5032912;28;20094;-65
2022/03/20 05:29:26;;;;;;;20.75;12.77;;;5.10;75.20;;;;;;5014622;28;20524;-66
2022/03/20 05:31:53;;;;;;;19.30;12.45;;;5.10;74.70;;;;;;5032518;28;20371;-65
2022/03/20 05:34:19;;;;;;;21.33;13.35;;;5.10;74.40;;;;;;5032556;28;20029;-66
2022/03/20 05:36:45;;;;;;;21.52;13.15;;;5.20;74.40;;;;;;5032450;28;20021;-65
2022/03/20 05:39:11;;;;;;;19.13;13.18;;;5.20;74.20;;;;;;5032413;28;20052;-66
2022/03/20 05:41:49;;;;;;;18.40;12.40;;;5.20;74.00;;;;;;5032108;28;20417;-65
2022/03/20 05:44:20;;;;;;;20.23;12.80;;;5.20;73.80;;;;;;5032385;28;20105;-65
2022/03/20 05:46:46;;;;;;;21.75;13.63;;;5.30;73.60;;;;;;5032140;28;20140;-65
2022/03/20 05:49:16;;;;;;;19.67;13.43;;;5.30;73.50;;;;;;5032301;28;20072;-66
2022/03/20 05:51:42;;;;;;;22.17;13.85;;;5.30;73.20;;;;;;5032073;28;20052;-65
2022/03/20 05:54:08;;;;;;;22.02;13.40;;;5.30;72.90;;;;;;5032000;28;20401;-66
2022/03/20 05:59:18;;;;;;;19.65;13.18;;;5.20;72.30;;;;;;5032118;28;20060;-65
2022/03/20 06:01:44;;;;;;;19.45;13.23;;;5.20;72.30;;;;;;5013952;28;20029;-65
2022/03/20 06:04:10;;;;;;;23.15;14.07;;;5.20;72.30;;;;;;5032089;28;20033;-65
2022/03/20 06:06:37;;;;;;;21.20;13.55;;;5.20;71.80;;;;;;5031708;28;20032;-65
2022/03/20 06:09:06;;;;;;;19.42;13.65;;;5.20;71.70;;;;;;5031963;28;20473;-64
2022/03/20 06:11:35;;;;;;;21.73;14.90;;;5.20;71.70;;;;;;5031938;28;20049;-65
2022/03/20 06:14:04;;;;;;;22.77;13.65;;;5.20;70.70;;;;;;5031891;28;20025;-65
2022/03/20 06:16:34;;;;;;;18.58;12.88;;;5.20;70.70;;;;;;5031672;28;20032;-65
2022/03/20 06:19:00;;;;;;;22.25;13.30;;;5.20;70.80;;;;;;5032000;28;20096;-65
2022/03/20 06:21:26;;;;;;;21.90;13.57;;;5.20;70.70;;;;;;5031710;28;20033;-65
2022/03/20 06:23:53;;;;;;;20.00;12.77;;;5.20;70.60;;;;;;5032233;28;20136;-65
2022/03/20 06:26:18;;;;;;;18.88;12.70;;;5.20;70.70;;;;;;5032026;28;20437;-65
2022/03/20 06:28:44;;;;;;;21.33;13.18;;;5.20;70.90;;;;;;5014026;28;20532;-66
2022/03/20 06:31:11;;;;;;;20.73;13.00;;;5.20;70.70;;;;;;5031264;28;20033;-65
2022/03/20 06:33:37;;;;;;;19.90;13.45;;;5.20;70.60;;;;;;5030149;28;20026;-66
2022/03/20 06:36:04;;;;;;;17.73;12.65;;;5.20;70.50;;;;;;5029796;28;20388;-65
2022/03/20 06:38:30;;;;;;;17.90;12.13;;;5.20;70.30;;;;;;5030075;28;20021;-65
2022/03/20 06:40:56;;;;;;;20.20;13.25;;;5.20;70.20;;;;;;5012316;28;20029;-65
2022/03/20 06:43:22;;;;;;;21.45;12.77;;;5.20;70.10;;;;;;5030194;28;20026;-65
2022/03/20 06:45:47;;;;;;;18.00;12.77;;;5.20;70.00;;;;;;5032139;28;20044;-66
2022/03/20 06:48:13;;;;;;;19.77;13.68;;;5.20;69.80;;;;;;5034123;28;20420;-66
2022/03/20 06:50:38;;;;;;;21.30;12.65;;;5.20;69.60;;;;;;5033210;28;20083;-64
2022/03/20 06:53:04;;;;;;;18.88;11.77;;;5.20;69.50;;;;;;5016268;28;20519;-66
2022/03/20 06:55:32;;;;;;;21.10;12.70;;;5.30;69.50;;;;;;5033608;28;20021;-66
2022/03/20 06:57:58;;;;;;;20.30;13.70;;;5.30;69.50;;;;;;5034052;28;20021;-65
2022/03/20 07:00:28;;;;;;;19.85;12.77;;;5.30;69.30;;;;;;5033749;28;20053;-65
2022/03/20 07:02:54;;;;;;;19.60;12.65;;;5.40;69.30;;;;;;5033631;28;20017;-65
2022/03/20 07:05:20;;;;;;;22.08;14.55;;;5.40;69.10;;;;;;5033504;28;20485;-65
2022/03/20 07:07:46;;;;;;;18.45;12.70;;;5.40;68.80;;;;;;5032990;28;20025;-65
2022/03/20 07:10:13;;;;;;;20.70;13.57;;;5.50;68.70;;;;;;5033520;28;20508;-65
2022/03/20 07:12:39;;;;;;;19.80;12.70;;;5.50;68.60;;;;;;5033270;28;20120;-65
2022/03/20 07:15:05;;;;;;;19.65;12.13;;;5.50;68.60;;;;;;5033132;28;20072;-65
2022/03/20 07:17:33;;;;;;;17.95;12.63;;;5.50;68.40;;;;;;5033489;28;20068;-65
2022/03/20 07:19:59;;;;;;;19.55;13.20;;;5.60;68.40;;;;;;5028876;28;20030;-65
2022/03/20 07:22:26;;;;;;;19.75;13.15;;;5.60;68.10;;;;;;5033031;28;20028;-65
2022/03/20 07:24:52;;;;;;;20.60;14.00;;;5.70;68.00;;;;;;5033092;28;20052;-65
2022/03/20 07:30:04;;;;;;;20.38;12.73;;;5.80;67.40;;;;;;5033396;28;20036;-65
2022/03/20 07:32:29;;;;;;;21.20;12.73;;;5.80;67.10;;;;;;5033068;28;20040;-65
2022/03/20 07:34:55;;;;;;;19.10;12.70;;;5.80;66.70;;;;;;5032762;28;20125;-65
2022/03/20 07:37:21;;;;;;;19.83;13.95;;;5.80;66.20;;;;;;5032632;28;20025;-64
2022/03/20 07:39:49;;;;;;;20.25;14.05;;;5.90;65.50;;;;;;5031892;28;20283;-66
2022/03/20 07:42:15;;;;;;;22.75;15.43;;;6.00;65.30;;;;;;5031273;28;20013;-65
2022/03/20 07:44:45;;;;;;;21.90;14.23;;;6.10;64.60;;;;;;5006446;28;20055;-65
2022/03/20 07:47:21;;;;;;;26.38;15.18;;;6.20;63.50;;;;;;5032241;28;20043;-65
2022/03/20 07:49:47;;;;;;;22.52;15.20;;;6.20;63.00;;;;;;5031548;28;20056;-65
2022/03/20 07:52:13;;;;;;;21.13;13.70;;;6.20;62.80;;;;;;5028956;28;20022;-65
2022/03/20 07:54:39;;;;;;;23.98;14.77;;;6.30;61.40;;;;;;5032605;28;20028;-65
2022/03/20 07:57:05;;;;;;;19.35;13.38;;;6.40;61.00;;;;;;5032150;28;20046;-65
2022/03/20 07:59:31;;;;;;;21.65;15.05;;;6.50;60.70;;;;;;5032403;28;20014;-65
2022/03/20 08:01:56;;;;;;;22.08;14.43;;;6.50;59.60;;;;;;5032701;28;20099;-65
2022/03/20 08:04:23;;;;;;;22.65;14.88;;;6.60;59.40;;;;;;5032461;28;20025;-65
2022/03/20 08:06:48;;;;;;;22.13;15.35;;;6.70;59.20;;;;;;5032586;28;20029;-65
2022/03/20 08:09:14;;;;;;;22.48;14.63;;;6.70;57.50;;;;;;5014781;28;20408;-64
2022/03/20 08:11:40;;;;;;;24.48;14.30;;;6.70;57.70;;;;;;5030736;28;20045;-64
2022/03/20 08:14:08;;;;;;;19.25;13.57;;;6.60;57.80;;;;;;5033914;28;20037;-64
2022/03/20 08:16:37;;;;;;;21.17;14.27;;;6.60;57.80;;;;;;5033690;28;20481;-64
2022/03/20 08:19:03;;;;;;;24.65;15.75;;;6.60;57.90;;;;;;5016043;28;20539;-65
2022/03/20 08:21:29;;;;;;;22.63;15.57;;;6.60;57.40;;;;;;5033808;28;20091;-64
2022/03/20 08:23:55;;;;;;;19.90;13.73;;;6.60;57.10;;;;;;5033858;28;20049;-65
2022/03/20 08:26:20;;;;;;;23.70;14.43;;;6.60;57.50;;;;;;5033639;28;20466;-65
2022/03/20 08:28:46;;;;;;;20.75;14.57;;;6.70;57.50;;;;;;5033840;28;20095;-65
2022/03/20 08:31:12;;;;;;;23.42;15.55;;;6.70;57.50;;;;;;5033780;28;20025;-65
2022/03/20 08:33:40;;;;;;;21.63;15.02;;;6.70;57.20;;;;;;5033473;28;20375;-65
2022/03/20 08:36:07;;;;;;;20.38;14.45;;;6.70;57.00;;;;;;5033429;28;20029;-65
2022/03/20 08:38:32;;;;;;;24.50;15.10;;;6.80;57.00;;;;;;5033398;28;20031;-65
2022/03/20 08:40:59;;;;;;;21.13;14.35;;;6.80;57.30;;;;;;5033428;28;20116;-65
2022/03/20 08:43:24;;;;;;;22.45;15.40;;;6.90;57.30;;;;;;5033325;28;20067;-64
2022/03/20 08:45:50;;;;;;;22.83;15.40;;;6.90;57.30;;;;;;5032321;28;20021;-65
2022/03/20 08:48:16;;;;;;;23.65;16.15;;;7.00;56.60;;;;;;5013824;28;20416;-65
2022/03/20 08:50:44;;;;;;;22.15;15.63;;;7.00;55.90;;;;;;5031489;28;20025;-64
2022/03/20 08:53:10;;;;;;;21.85;14.88;;;7.00;55.40;;;;;;5024950;28;20075;-65
2022/03/20 08:55:36;;;;;;;21.23;14.35;;;7.00;55.30;;;;;;5008885;28;20037;-64
2022/03/20 08:58:04;;;;;;;21.27;14.07;;;7.00;54.80;;;;;;5033149;28;20043;-66
2022/03/20 09:00:32;;;;;;;22.83;15.18;;;7.00;55.10;;;;;;5033087;28;20140;-65
2022/03/20 09:02:57;;;;;;;22.17;15.20;;;7.00;55.20;;;;;;5033338;28;20021;-64
2022/03/20 09:05:23;;;;;;;20.70;14.73;;;7.10;55.10;;;;;;5032862;28;20068;-66
2022/03/20 09:07:50;;;;;;;21.77;15.32;;;7.20;55.10;;;;;;5032156;28;20033;-66
2022/03/20 09:10:16;;;;;;;22.50;14.55;;;7.20;54.70;;;;;;5032923;28;20095;-65
2022/03/20 09:12:43;;;;;;;24.65;16.13;;;7.30;54.90;;;;;;5031294;28;20044;-65
2022/03/20 09:15:16;;;;;;;22.98;15.68;;;7.30;54.30;;;;;;5031149;28;20057;-65
2022/03/20 09:20:31;;;;;;;20.42;14.75;;;7.50;53.70;;;;;;5031359;28;20067;-64
2022/03/20 09:22:57;;;;;;;21.58;14.55;;;7.60;54.00;;;;;;5005778;28;20018;-65
2022/03/20 09:25:23;;;;;;;21.08;14.93;;;7.70;54.00;;;;;;5024005;28;20021;-65
2022/03/20 09:27:49;;;;;;;23.08;15.25;;;7.80;54.00;;;;;;5030944;28;20389;-66
2022/03/20 09:30:18;;;;;;;26.17;16.15;;;7.90;54.00;;;;;;5017480;28;20478;-65
2022/03/20 09:32:45;;;;;;;24.65;16.00;;;8.00;53.50;;;;;;5031154;28;20380;-65
2022/03/20 09:35:12;;;;;;;20.77;14.82;;;8.10;53.10;;;;;;5030770;28;20025;-65
2022/03/20 09:37:38;;;;;;;19.67;13.93;;;8.20;53.00;;;;;;5030792;28;20104;-66
2022/03/20 09:40:05;;;;;;;25.50;15.35;;;8.40;52.90;;;;;;5030747;28;20017;-65
2022/03/20 09:42:30;;;;;;;22.15;15.43;;;8.70;52.30;;;;;;5030757;28;20029;-65
2022/03/20 09:44:56;;;;;;;23.17;16.17;;;8.90;52.10;;;;;;5030852;28;20033;-65
2022/03/20 09:47:23;;;;;;;23.88;15.63;;;9.10;51.30;;;;;;5030553;28;20420;-66
2022/03/20 09:49:50;;;;;;;23.90;15.98;;;9.20;51.30;;;;;;5028022;28;20044;-65
2022/03/20 09:52:23;;;;;;;24.30;16.27;;;9.40;51.10;;;;;;5002391;28;20151;-66
2022/03/20 09:54:49;;;;;;;27.10;16.60;;;9.50;50.70;;;;;;5027974;28;20496;-66
2022/03/20 09:57:15;;;;;;;23.15;17.08;;;9.50;50.50;;;;;;5012780;28;20516;-65
2022/03/20 09:59:43;;;;;;;22.92;16.33;;;9.60;50.20;;;;;;5012698;28;20017;-66
2022/03/20 10:02:11;;;;;;;21.50;15.15;;;9.70;50.00;;;;;;5007572;28;20018;-66
2022/03/20 10:04:57;;;;;;;23.65;16.48;;;9.80;50.20;;;;;;5030456;28;20021;-66
2022/03/20 10:07:28;;;;;;;23.80;16.23;;;10.00;49.90;;;;;;5030149;28;20053;-66
2022/03/20 10:10:06;;;;;;;23.00;16.48;;;10.10;49.10;;;;;;5030418;28;20021;-65
2022/03/20 10:12:33;;;;;;;27.35;17.63;;;10.30;49.10;;;;;;5028283;28;20025;-65
2022/03/20 10:14:59;;;;;;;25.17;16.75;;;10.20;49.00;;;;;;5030436;28;20048;-66
2022/03/20 10:17:25;;;;;;;25.02;17.48;;;10.00;49.00;;;;;;5029952;28;20093;-65
2022/03/20 10:19:50;;;;;;;21.45;15.73;;;10.00;48.80;;;;;;5032406;28;20084;-65
2022/03/20 10:22:17;;;;;;;21.60;16.77;;;9.80;49.20;;;;;;5035178;28;20130;-66
2022/03/20 10:24:50;;;;;;;26.45;18.20;;;9.80;49.20;;;;;;5035855;28;20133;-64
2022/03/20 10:27:16;;;;;;;20.98;15.30;;;9.80;49.10;;;;;;5034325;28;20569;-66
2022/03/20 10:29:50;;;;;;;30.30;20.15;;;9.80;49.50;;;;;;5034183;28;20137;-66
2022/03/20 10:32:17;;;;;;;25.30;17.20;;;9.90;48.60;;;;;;5034587;28;20026;-65
2022/03/20 10:35:04;;;;;;;23.95;16.92;;;9.70;48.90;;;;;;5008745;28;20033;-66
2022/03/20 10:37:52;;;;;;;21.83;15.50;;;9.80;49.30;;;;;;5031956;28;20108;-65
2022/03/20 10:40:27;;;;;;;27.33;20.13;;;9.80;49.40;;;;;;5035091;28;20017;-65
2022/03/20 10:43:16;;;;;;;28.02;19.65;;;9.60;49.20;;;;;;5035584;28;20027;-65
2022/03/20 10:46:01;;;;;;;30.52;20.73;;;9.50;49.70;;;;;;5035502;28;20113;-65
2022/03/20 10:48:38;;;;;;;27.63;19.05;;;9.40;49.40;;;;;;5017885;28;20028;-64
2022/03/20 10:51:06;;;;;;;28.50;20.95;;;9.40;49.60;;;;;;5035561;28;20028;-65
2022/03/20 10:53:32;;;;;;;32.75;20.95;;;9.30;49.90;;;;;;5035417;28;20017;-66
2022/03/20 10:56:05;;;;;;;30.95;20.05;;;9.20;50.10;;;;;;5035302;28;20099;-64
2022/03/20 10:58:30;;;;;;;31.02;22.27;;;9.10;50.60;;;;;;5035318;28;20023;-65
2022/03/20 11:00:56;;;;;;;32.88;22.13;;;9.00;51.20;;;;;;5017806;28;20028;-65
2022/03/20 11:03:23;;;;;;;35.22;24.13;;;9.00;52.30;;;;;;5017636;28;20017;-65
2022/03/20 11:05:52;;;;;;;32.97;23.13;;;8.90;53.60;;;;;;5035334;28;20025;-65
2022/03/20 11:08:19;;;;;;;32.83;21.33;;;8.70;53.00;;;;;;5035241;28;20098;-65
2022/03/20 11:10:47;;;;;;;33.88;22.58;;;8.80;53.90;;;;;;5034868;28;20080;-65
2022/03/20 11:13:15;;;;;;;34.95;25.23;;;8.90;54.90;;;;;;5035179;28;20037;-65
2022/03/20 11:15:43;;;;;;;30.08;22.80;;;9.00;55.20;;;;;;5034889;28;20437;-66
2022/03/20 11:18:11;;;;;;;32.25;23.52;;;9.00;55.00;;;;;;5035065;28;20057;-66
2022/03/20 11:20:38;;;;;;;33.33;25.13;;;9.00;55.60;;;;;;5034911;28;20097;-65
2022/03/20 11:23:05;;;;;;;34.53;24.63;;;9.00;55.80;;;;;;5017231;28;20017;-66
2022/03/20 11:25:35;;;;;;;35.15;23.55;;;9.00;56.00;;;;;;5034741;28;20481;-65
2022/03/20 11:28:03;;;;;;;39.72;25.98;;;9.00;55.70;;;;;;5034953;28;20033;-65
2022/03/20 11:30:32;;;;;;;37.42;26.67;;;9.10;56.20;;;;;;5034034;28;20084;-65
2022/03/20 11:33:00;;;;;;;34.45;23.92;;;9.00;56.90;;;;;;5016871;28;20159;-64
2022/03/20 11:35:29;;;;;;;35.60;24.70;;;9.00;56.80;;;;;;5017130;28;20029;-65
2022/03/20 11:37:58;;;;;;;32.88;24.35;;;9.00;57.20;;;;;;5016799;28;20389;-65
2022/03/20 11:40:26;;;;;;;36.50;26.63;;;9.10;57.30;;;;;;5034420;28;20017;-64
2022/03/20 11:43:14;;;;;;;42.80;28.67;;;9.00;57.40;;;;;;5034611;28;20512;-65
2022/03/20 11:45:40;;;;;;;36.20;26.52;;;8.90;58.00;;;;;;5033727;28;20022;-65
2022/03/20 11:48:14;;;;;;;37.75;27.00;;;8.70;58.90;;;;;;5028480;28;20040;-64
2022/03/20 11:50:41;;;;;;;39.88;26.80;;;8.60;59.40;;;;;;5033470;28;20040;-66
2022/03/20 11:53:09;;;;;;;35.28;26.65;;;8.60;59.60;;;;;;5033854;28;20026;-65
2022/03/20 11:55:48;;;;;;;40.83;28.65;;;8.50;59.70;;;;;;5010717;28;20044;-64
2022/03/20 11:58:17;;;;;;;36.65;25.95;;;8.50;59.70;;;;;;5032755;28;20026;-65
2022/03/20 12:00:44;;;;;;;39.20;26.15;;;8.60;60.20;;;;;;5032031;28;20057;-66
2022/03/20 12:03:13;;;;;;;36.58;26.88;;;8.60;59.90;;;;;;5032080;28;20017;-65
2022/03/20 12:05:41;;;;;;;33.60;25.63;;;8.70;59.90;;;;;;5032348;28;20105;-66
2022/03/20 12:08:34;;;;;;;36.40;26.42;;;8.70;59.10;;;;;;5032848;28;20025;-66
2022/03/20 12:11:20;;;;;;;36.35;25.83;;;8.70;58.50;;;;;;5030326;28;20099;-65
2022/03/20 12:14:04;;;;;;;36.35;26.42;;;8.70;59.50;;;;;;5033338;28;20040;-65
2022/03/20 12:16:47;;;;;;;35.65;25.45;;;8.70;59.30;;;;;;5033748;28;20112;-65
2022/03/20 12:19:15;;;;;;;35.85;24.70;;;8.80;58.80;;;;;;5013090;28;20030;-65
2022/03/20 12:22:03;;;;;;;39.00;26.08;;;8.80;59.50;;;;;;5033091;28;20025;-65
2022/03/20 12:24:34;;;;;;;36.08;25.45;;;8.80;58.20;;;;;;5029757;28;20013;-66
2022/03/20 12:27:20;;;;;;;36.17;25.98;;;8.80;58.90;;;;;;5022706;28;20460;-65
2022/03/20 12:29:52;;;;;;;37.13;24.55;;;8.90;59.00;;;;;;5032488;28;20037;-65
2022/03/20 12:32:19;;;;;;;36.05;26.08;;;9.00;58.70;;;;;;5033594;28;20032;-66
2022/03/20 12:35:02;;;;;;;33.47;23.92;;;9.10;58.80;;;;;;5033486;28;20041;-65
2022/03/20 12:37:34;;;;;;;33.55;25.20;;;9.10;56.20;;;;;;5033621;28;20056;-65
2022/03/20 12:40:03;;;;;;;36.38;25.15;;;9.20;56.90;;;;;;5032241;28;20056;-65
2022/03/20 12:42:34;;;;;;;34.05;22.92;;;9.20;55.30;;;;;;5032430;28;20117;-65
2022/03/20 12:45:00;;;;;;;33.45;23.20;;;9.20;54.90;;;;;;5033489;28;20033;-65
2022/03/20 12:47:28;;;;;;;35.97;24.27;;;9.30;55.00;;;;;;5033304;28;20087;-65
2022/03/20 12:50:02;;;;;;;33.92;23.58;;;9.20;54.40;;;;;;5031484;28;20081;-65
2022/03/20 12:52:31;;;;;;;34.85;24.85;;;9.20;54.40;;;;;;5031655;28;20021;-66
2022/03/20 12:54:59;;;;;;;35.47;24.05;;;9.20;54.60;;;;;;5031243;28;20068;-66
2022/03/20 12:57:47;;;;;;;37.08;25.20;;;9.20;55.30;;;;;;5024678;28;20069;-64
2022/03/20 13:00:20;;;;;;;37.55;24.25;;;9.20;54.80;;;;;;5031132;28;20033;-64
2022/03/20 13:02:56;;;;;;;35.47;24.50;;;9.10;54.10;;;;;;5029397;28;20025;-64
2022/03/20 13:05:22;;;;;;;37.78;25.05;;;9.00;54.10;;;;;;5027273;28;20296;-65
2022/03/20 13:07:47;;;;;;;37.53;25.42;;;9.00;54.00;;;;;;5031321;28;20100;-64
2022/03/20 13:10:16;;;;;;;36.30;24.48;;;8.90;54.40;;;;;;5032118;28;20030;-66
2022/03/20 13:12:58;;;;;;;33.40;22.40;;;8.90;54.40;;;;;;5030965;28;20025;-65
2022/03/20 13:15:28;;;;;;;35.83;24.95;;;8.90;54.40;;;;;;5032262;28;20065;-64
2022/03/20 13:17:54;;;;;;;;;;;8.90;54.50;;;;;;5030171;28;20044;-65